sensor_id;sensor_type;location;lat;lon;timestamp;P1;durP1;ratioP1;P2;durP2;ratioP2
7531;SDS011;3807;49.030;8.714;2023-09-12T00:02:10;8.13;;;5.35;;
7531;SDS011;3807;49.030;8.714;2023-09-12T00:04:35;9.77;;;5.68;;
7531;SDS011;3807;49.030;8.714;2023-09-12T00:07:01;12.13;;;5.28;;
7531;SDS011;3807;49.030;8.714;2023-09-12T00:09:27;10.95;;;5.65;;
7531;SDS011;3807;49.030;8.714;2023-09-12T00:11:53;10.65;;;6.03;;
7531;SDS011;3807;49.030;8.714;2023-09-12T00:14:18;9.25;;;5.53;;
7531;SDS011;3807;49.030;8.714;2023-09-12T00:16:44;10.20;;;5.62;;
7531;SDS011;3807;49.030;8.714;2023-09-12T00:19:09;9.68;;;6.18;;
7531;SDS011;3807;49.030;8.714;2023-09-12T00:21:35;7.10;;;5.22;;
7531;SDS011;3807;49.030;8.714;2023-09-12T00:24:00;12.57;;;6.40;;
7531;SDS011;3807;49.030;8.714;2023-09-12T00:26:26;7.75;;;5.70;;
7531;SDS011;3807;49.030;8.714;2023-09-12T00:28:52;10.70;;;5.93;;
7531;SDS011;3807;49.030;8.714;2023-09-12T00:31:17;8.90;;;5.97;;
7531;SDS011;3807;49.030;8.714;2023-09-12T00:33:42;12.88;;;6.05;;
7531;SDS011;3807;49.030;8.714;2023-09-12T00:36:08;11.18;;;6.37;;
7531;SDS011;3807;49.030;8.714;2023-09-12T00:38:33;7.07;;;5.07;;
7531;SDS011;3807;49.030;8.714;2023-09-12T00:40:58;11.38;;;5.82;;
7531;SDS011;3807;49.030;8.714;2023-09-12T00:43:24;11.43;;;5.57;;
7531;SDS011;3807;49.030;8.714;2023-09-12T00:45:49;16.10;;;5.80;;
7531;SDS011;3807;49.030;8.714;2023-09-12T00:48:15;9.95;;;5.35;;
7531;SDS011;3807;49.030;8.714;2023-09-12T00:50:43;11.77;;;5.72;;
7531;SDS011;3807;49.030;8.714;2023-09-12T00:53:11;21.17;;;5.82;;
7531;SDS011;3807;49.030;8.714;2023-09-12T00:55:37;9.52;;;5.65;;
7531;SDS011;3807;49.030;8.714;2023-09-12T00:58:08;10.18;;;5.70;;
7531;SDS011;3807;49.030;8.714;2023-09-12T01:00:33;9.95;;;5.90;;
7531;SDS011;3807;49.030;8.714;2023-09-12T01:02:59;12.23;;;6.70;;
7531;SDS011;3807;49.030;8.714;2023-09-12T01:05:24;12.43;;;5.45;;
7531;SDS011;3807;49.030;8.714;2023-09-12T01:07:50;9.00;;;5.62;;
7531;SDS011;3807;49.030;8.714;2023-09-12T01:10:15;10.82;;;5.93;;
7531;SDS011;3807;49.030;8.714;2023-09-12T01:12:41;14.45;;;6.32;;
7531;SDS011;3807;49.030;8.714;2023-09-12T01:15:06;9.05;;;5.68;;
7531;SDS011;3807;49.030;8.714;2023-09-12T01:17:38;7.55;;;5.53;;
7531;SDS011;3807;49.030;8.714;2023-09-12T01:20:05;11.30;;;6.12;;
7531;SDS011;3807;49.030;8.714;2023-09-12T01:22:50;9.88;;;5.78;;
7531;SDS011;3807;49.030;8.714;2023-09-12T01:28:06;11.05;;;5.82;;
7531;SDS011;3807;49.030;8.714;2023-09-12T01:30:34;9.32;;;6.00;;
7531;SDS011;3807;49.030;8.714;2023-09-12T01:33:01;8.75;;;5.28;;
7531;SDS011;3807;49.030;8.714;2023-09-12T01:35:27;9.73;;;6.20;;
7531;SDS011;3807;49.030;8.714;2023-09-12T01:37:52;8.15;;;5.93;;
7531;SDS011;3807;49.030;8.714;2023-09-12T01:40:18;18.85;;;6.43;;
7531;SDS011;3807;49.030;8.714;2023-09-12T01:42:52;10.88;;;5.80;;
7531;SDS011;3807;49.030;8.714;2023-09-12T01:45:19;10.40;;;5.85;;
7531;SDS011;3807;49.030;8.714;2023-09-12T01:47:45;10.27;;;6.20;;
7531;SDS011;3807;49.030;8.714;2023-09-12T01:50:12;10.30;;;6.05;;
7531;SDS011;3807;49.030;8.714;2023-09-12T01:52:39;13.75;;;6.30;;
7531;SDS011;3807;49.030;8.714;2023-09-12T01:55:06;9.48;;;5.78;;
7531;SDS011;3807;49.030;8.714;2023-09-12T01:57:34;11.10;;;6.28;;
7531;SDS011;3807;49.030;8.714;2023-09-12T02:00:00;12.93;;;6.35;;
7531;SDS011;3807;49.030;8.714;2023-09-12T02:02:26;10.32;;;6.57;;
7531;SDS011;3807;49.030;8.714;2023-09-12T02:04:58;16.70;;;5.90;;
7531;SDS011;3807;49.030;8.714;2023-09-12T02:07:32;10.52;;;6.07;;
7531;SDS011;3807;49.030;8.714;2023-09-12T02:10:00;9.35;;;5.70;;
7531;SDS011;3807;49.030;8.714;2023-09-12T02:12:25;10.35;;;6.15;;
7531;SDS011;3807;49.030;8.714;2023-09-12T02:14:51;10.07;;;6.00;;
7531;SDS011;3807;49.030;8.714;2023-09-12T02:17:16;11.50;;;5.87;;
7531;SDS011;3807;49.030;8.714;2023-09-12T02:19:41;9.50;;;6.40;;
7531;SDS011;3807;49.030;8.714;2023-09-12T02:22:07;10.73;;;5.70;;
7531;SDS011;3807;49.030;8.714;2023-09-12T02:24:34;11.40;;;6.62;;
7531;SDS011;3807;49.030;8.714;2023-09-12T02:27:00;8.85;;;5.80;;
7531;SDS011;3807;49.030;8.714;2023-09-12T02:29:25;10.32;;;6.00;;
7531;SDS011;3807;49.030;8.714;2023-09-12T02:31:51;9.27;;;6.15;;
7531;SDS011;3807;49.030;8.714;2023-09-12T02:34:16;10.15;;;5.90;;
7531;SDS011;3807;49.030;8.714;2023-09-12T02:36:41;13.70;;;6.25;;
7531;SDS011;3807;49.030;8.714;2023-09-12T02:39:07;9.88;;;6.87;;
7531;SDS011;3807;49.030;8.714;2023-09-12T02:41:32;12.82;;;6.25;;
7531;SDS011;3807;49.030;8.714;2023-09-12T02:43:57;9.95;;;6.43;;
7531;SDS011;3807;49.030;8.714;2023-09-12T02:46:23;12.05;;;6.60;;
7531;SDS011;3807;49.030;8.714;2023-09-12T02:48:49;11.80;;;6.82;;
7531;SDS011;3807;49.030;8.714;2023-09-12T02:51:14;11.50;;;6.70;;
7531;SDS011;3807;49.030;8.714;2023-09-12T02:53:39;13.82;;;8.05;;
7531;SDS011;3807;49.030;8.714;2023-09-12T02:56:05;14.35;;;6.40;;
7531;SDS011;3807;49.030;8.714;2023-09-12T02:58:30;11.77;;;6.50;;
7531;SDS011;3807;49.030;8.714;2023-09-12T03:00:55;11.02;;;6.45;;
7531;SDS011;3807;49.030;8.714;2023-09-12T03:03:21;9.85;;;5.97;;
7531;SDS011;3807;49.030;8.714;2023-09-12T03:05:46;9.88;;;6.10;;
7531;SDS011;3807;49.030;8.714;2023-09-12T03:08:11;13.15;;;5.93;;
7531;SDS011;3807;49.030;8.714;2023-09-12T03:10:37;14.50;;;7.07;;
7531;SDS011;3807;49.030;8.714;2023-09-12T03:13:02;11.70;;;6.85;;
7531;SDS011;3807;49.030;8.714;2023-09-12T03:15:28;11.25;;;6.22;;
7531;SDS011;3807;49.030;8.714;2023-09-12T03:17:53;14.57;;;6.60;;
7531;SDS011;3807;49.030;8.714;2023-09-12T03:20:18;17.10;;;7.78;;
7531;SDS011;3807;49.030;8.714;2023-09-12T03:22:45;12.93;;;7.62;;
7531;SDS011;3807;49.030;8.714;2023-09-12T03:25:10;10.60;;;7.22;;
7531;SDS011;3807;49.030;8.714;2023-09-12T03:27:36;13.90;;;7.47;;
7531;SDS011;3807;49.030;8.714;2023-09-12T03:30:01;10.65;;;7.15;;
7531;SDS011;3807;49.030;8.714;2023-09-12T03:32:26;13.07;;;7.97;;
7531;SDS011;3807;49.030;8.714;2023-09-12T03:34:52;12.00;;;7.20;;
7531;SDS011;3807;49.030;8.714;2023-09-12T03:37:17;13.38;;;7.28;;
7531;SDS011;3807;49.030;8.714;2023-09-12T03:39:42;10.45;;;7.03;;
7531;SDS011;3807;49.030;8.714;2023-09-12T03:42:08;12.02;;;6.70;;
7531;SDS011;3807;49.030;8.714;2023-09-12T03:44:33;13.13;;;7.28;;
7531;SDS011;3807;49.030;8.714;2023-09-12T03:46:58;10.05;;;6.28;;
7531;SDS011;3807;49.030;8.714;2023-09-12T03:49:24;9.82;;;6.80;;
7531;SDS011;3807;49.030;8.714;2023-09-12T03:51:49;14.98;;;6.40;;
7531;SDS011;3807;49.030;8.714;2023-09-12T03:54:14;10.20;;;6.80;;
7531;SDS011;3807;49.030;8.714;2023-09-12T03:56:40;9.75;;;6.28;;
7531;SDS011;3807;49.030;8.714;2023-09-12T03:59:05;13.77;;;7.15;;
7531;SDS011;3807;49.030;8.714;2023-09-12T04:01:31;13.68;;;8.25;;
7531;SDS011;3807;49.030;8.714;2023-09-12T04:03:57;12.05;;;7.35;;
7531;SDS011;3807;49.030;8.714;2023-09-12T04:06:22;11.18;;;7.70;;
7531;SDS011;3807;49.030;8.714;2023-09-12T04:08:47;9.70;;;7.60;;
7531;SDS011;3807;49.030;8.714;2023-09-12T04:11:13;12.77;;;7.82;;
7531;SDS011;3807;49.030;8.714;2023-09-12T04:13:38;16.20;;;7.97;;
7531;SDS011;3807;49.030;8.714;2023-09-12T04:16:03;13.62;;;7.78;;
7531;SDS011;3807;49.030;8.714;2023-09-12T04:18:29;12.50;;;7.18;;
7531;SDS011;3807;49.030;8.714;2023-09-12T04:20:54;14.60;;;7.25;;
7531;SDS011;3807;49.030;8.714;2023-09-12T04:23:24;12.70;;;7.12;;
7531;SDS011;3807;49.030;8.714;2023-09-12T04:25:50;10.18;;;7.57;;
7531;SDS011;3807;49.030;8.714;2023-09-12T04:28:15;11.27;;;7.07;;
7531;SDS011;3807;49.030;8.714;2023-09-12T04:30:40;17.67;;;8.25;;
7531;SDS011;3807;49.030;8.714;2023-09-12T04:33:06;13.25;;;7.75;;
7531;SDS011;3807;49.030;8.714;2023-09-12T04:35:34;15.07;;;7.57;;
7531;SDS011;3807;49.030;8.714;2023-09-12T04:38:00;16.25;;;7.95;;
7531;SDS011;3807;49.030;8.714;2023-09-12T04:40:25;14.57;;;7.75;;
7531;SDS011;3807;49.030;8.714;2023-09-12T04:42:51;11.65;;;6.82;;
7531;SDS011;3807;49.030;8.714;2023-09-12T04:45:16;16.40;;;7.97;;
7531;SDS011;3807;49.030;8.714;2023-09-12T04:47:41;10.85;;;6.82;;
7531;SDS011;3807;49.030;8.714;2023-09-12T04:50:07;10.55;;;7.70;;
7531;SDS011;3807;49.030;8.714;2023-09-12T04:52:32;14.87;;;8.45;;
7531;SDS011;3807;49.030;8.714;2023-09-12T04:54:58;14.65;;;8.68;;
7531;SDS011;3807;49.030;8.714;2023-09-12T04:57:23;15.00;;;8.25;;
7531;SDS011;3807;49.030;8.714;2023-09-12T04:59:49;15.43;;;7.75;;
7531;SDS011;3807;49.030;8.714;2023-09-12T05:02:16;15.07;;;8.07;;
7531;SDS011;3807;49.030;8.714;2023-09-12T05:04:41;13.55;;;8.60;;
7531;SDS011;3807;49.030;8.714;2023-09-12T05:07:06;15.40;;;9.43;;
7531;SDS011;3807;49.030;8.714;2023-09-12T05:09:32;13.13;;;8.52;;
7531;SDS011;3807;49.030;8.714;2023-09-12T05:11:57;16.92;;;10.20;;
7531;SDS011;3807;49.030;8.714;2023-09-12T05:14:23;15.85;;;9.57;;
7531;SDS011;3807;49.030;8.714;2023-09-12T05:16:48;20.00;;;11.20;;
7531;SDS011;3807;49.030;8.714;2023-09-12T05:19:13;14.57;;;9.52;;
7531;SDS011;3807;49.030;8.714;2023-09-12T05:21:39;14.18;;;9.10;;
7531;SDS011;3807;49.030;8.714;2023-09-12T05:24:04;13.18;;;8.25;;
7531;SDS011;3807;49.030;8.714;2023-09-12T05:26:29;12.75;;;8.88;;
7531;SDS011;3807;49.030;8.714;2023-09-12T05:28:55;14.30;;;8.45;;
7531;SDS011;3807;49.030;8.714;2023-09-12T05:31:20;11.07;;;8.05;;
7531;SDS011;3807;49.030;8.714;2023-09-12T05:33:46;12.85;;;7.75;;
7531;SDS011;3807;49.030;8.714;2023-09-12T05:36:11;12.75;;;8.32;;
7531;SDS011;3807;49.030;8.714;2023-09-12T05:38:36;16.60;;;7.35;;
7531;SDS011;3807;49.030;8.714;2023-09-12T05:41:01;13.70;;;7.82;;
7531;SDS011;3807;49.030;8.714;2023-09-12T05:43:27;18.33;;;8.27;;
7531;SDS011;3807;49.030;8.714;2023-09-12T05:45:52;13.75;;;7.07;;
7531;SDS011;3807;49.030;8.714;2023-09-12T05:48:18;14.43;;;7.90;;
7531;SDS011;3807;49.030;8.714;2023-09-12T05:50:43;15.88;;;7.37;;
7531;SDS011;3807;49.030;8.714;2023-09-12T05:53:09;12.37;;;7.30;;
7531;SDS011;3807;49.030;8.714;2023-09-12T05:55:34;13.68;;;7.53;;
7531;SDS011;3807;49.030;8.714;2023-09-12T05:58:00;12.57;;;7.18;;
7531;SDS011;3807;49.030;8.714;2023-09-12T06:00:25;12.20;;;7.60;;
7531;SDS011;3807;49.030;8.714;2023-09-12T06:02:51;16.08;;;8.07;;
7531;SDS011;3807;49.030;8.714;2023-09-12T06:05:16;10.85;;;7.30;;
7531;SDS011;3807;49.030;8.714;2023-09-12T06:07:41;14.48;;;8.77;;
7531;SDS011;3807;49.030;8.714;2023-09-12T06:10:07;14.07;;;7.25;;
7531;SDS011;3807;49.030;8.714;2023-09-12T06:12:33;12.57;;;8.30;;
7531;SDS011;3807;49.030;8.714;2023-09-12T06:15:01;18.65;;;8.30;;
7531;SDS011;3807;49.030;8.714;2023-09-12T06:17:26;13.88;;;8.73;;
7531;SDS011;3807;49.030;8.714;2023-09-12T06:19:52;18.05;;;8.15;;
7531;SDS011;3807;49.030;8.714;2023-09-12T06:22:19;14.45;;;7.53;;
7531;SDS011;3807;49.030;8.714;2023-09-12T06:24:44;15.18;;;8.65;;
7531;SDS011;3807;49.030;8.714;2023-09-12T06:27:10;18.58;;;8.52;;
7531;SDS011;3807;49.030;8.714;2023-09-12T06:29:38;24.25;;;8.77;;
7531;SDS011;3807;49.030;8.714;2023-09-12T06:32:03;34.75;;;9.10;;
7531;SDS011;3807;49.030;8.714;2023-09-12T06:34:29;23.38;;;8.35;;
7531;SDS011;3807;49.030;8.714;2023-09-12T06:36:54;19.65;;;8.23;;
7531;SDS011;3807;49.030;8.714;2023-09-12T06:39:20;17.62;;;8.75;;
7531;SDS011;3807;49.030;8.714;2023-09-12T06:41:45;22.25;;;8.27;;
7531;SDS011;3807;49.030;8.714;2023-09-12T06:44:10;22.92;;;9.45;;
7531;SDS011;3807;49.030;8.714;2023-09-12T06:46:37;24.23;;;9.95;;
7531;SDS011;3807;49.030;8.714;2023-09-12T06:49:03;32.75;;;9.48;;
7531;SDS011;3807;49.030;8.714;2023-09-12T06:51:28;49.40;;;10.15;;
7531;SDS011;3807;49.030;8.714;2023-09-12T06:53:54;30.75;;;11.10;;
7531;SDS011;3807;49.030;8.714;2023-09-12T06:56:19;61.30;;;11.30;;
7531;SDS011;3807;49.030;8.714;2023-09-12T06:58:46;74.80;;;12.80;;
7531;SDS011;3807;49.030;8.714;2023-09-12T07:01:12;52.13;;;12.20;;
7531;SDS011;3807;49.030;8.714;2023-09-12T07:03:38;44.10;;;10.55;;
7531;SDS011;3807;49.030;8.714;2023-09-12T07:06:03;22.65;;;9.75;;
7531;SDS011;3807;49.030;8.714;2023-09-12T07:08:30;24.27;;;8.75;;
7531;SDS011;3807;49.030;8.714;2023-09-12T07:10:56;12.73;;;8.05;;
7531;SDS011;3807;49.030;8.714;2023-09-12T07:13:22;15.48;;;8.90;;
7531;SDS011;3807;49.030;8.714;2023-09-12T07:15:49;14.50;;;8.57;;
7531;SDS011;3807;49.030;8.714;2023-09-12T07:18:17;17.40;;;8.52;;
7531;SDS011;3807;49.030;8.714;2023-09-12T07:20:43;23.08;;;9.02;;
7531;SDS011;3807;49.030;8.714;2023-09-12T07:23:08;13.57;;;8.45;;
7531;SDS011;3807;49.030;8.714;2023-09-12T07:25:40;13.50;;;8.77;;
7531;SDS011;3807;49.030;8.714;2023-09-12T07:28:07;16.73;;;9.02;;
7531;SDS011;3807;49.030;8.714;2023-09-12T07:30:33;14.25;;;8.95;;
7531;SDS011;3807;49.030;8.714;2023-09-12T07:32:58;18.30;;;8.45;;
7531;SDS011;3807;49.030;8.714;2023-09-12T07:35:23;16.55;;;8.38;;
7531;SDS011;3807;49.030;8.714;2023-09-12T07:37:49;15.10;;;9.23;;
7531;SDS011;3807;49.030;8.714;2023-09-12T07:40:15;13.38;;;8.20;;
7531;SDS011;3807;49.030;8.714;2023-09-12T07:42:40;15.80;;;8.00;;
7531;SDS011;3807;49.030;8.714;2023-09-12T07:45:06;11.48;;;8.05;;
7531;SDS011;3807;49.030;8.714;2023-09-12T07:47:32;11.63;;;7.43;;
7531;SDS011;3807;49.030;8.714;2023-09-12T07:49:58;14.80;;;8.55;;
7531;SDS011;3807;49.030;8.714;2023-09-12T07:52:25;12.90;;;7.43;;
7531;SDS011;3807;49.030;8.714;2023-09-12T07:54:51;11.05;;;6.90;;
7531;SDS011;3807;49.030;8.714;2023-09-12T07:57:22;13.75;;;8.02;;
7531;SDS011;3807;49.030;8.714;2023-09-12T07:59:47;14.95;;;6.97;;
7531;SDS011;3807;49.030;8.714;2023-09-12T08:02:13;12.80;;;8.20;;
7531;SDS011;3807;49.030;8.714;2023-09-12T08:04:38;18.12;;;7.90;;
7531;SDS011;3807;49.030;8.714;2023-09-12T08:07:03;12.90;;;6.85;;
7531;SDS011;3807;49.030;8.714;2023-09-12T08:09:48;13.05;;;7.03;;
7531;SDS011;3807;49.030;8.714;2023-09-12T08:12:15;13.38;;;7.07;;
7531;SDS011;3807;49.030;8.714;2023-09-12T08:14:41;15.07;;;7.70;;
7531;SDS011;3807;49.030;8.714;2023-09-12T08:17:07;12.88;;;7.30;;
7531;SDS011;3807;49.030;8.714;2023-09-12T08:19:32;21.52;;;7.15;;
7531;SDS011;3807;49.030;8.714;2023-09-12T08:21:57;17.23;;;7.47;;
7531;SDS011;3807;49.030;8.714;2023-09-12T08:24:22;14.32;;;8.07;;
7531;SDS011;3807;49.030;8.714;2023-09-12T08:26:48;9.65;;;7.43;;
7531;SDS011;3807;49.030;8.714;2023-09-12T08:29:14;15.65;;;7.45;;
7531;SDS011;3807;49.030;8.714;2023-09-12T08:31:40;14.35;;;7.45;;
7531;SDS011;3807;49.030;8.714;2023-09-12T08:34:05;12.13;;;7.00;;
7531;SDS011;3807;49.030;8.714;2023-09-12T08:36:30;14.32;;;6.93;;
7531;SDS011;3807;49.030;8.714;2023-09-12T08:38:55;17.23;;;7.72;;
7531;SDS011;3807;49.030;8.714;2023-09-12T08:41:21;9.52;;;6.70;;
7531;SDS011;3807;49.030;8.714;2023-09-12T08:43:46;12.85;;;6.95;;
7531;SDS011;3807;49.030;8.714;2023-09-12T08:46:13;14.90;;;7.85;;
7531;SDS011;3807;49.030;8.714;2023-09-12T08:48:40;14.20;;;6.85;;
7531;SDS011;3807;49.030;8.714;2023-09-12T08:51:07;9.40;;;6.60;;
7531;SDS011;3807;49.030;8.714;2023-09-12T08:53:35;11.88;;;6.78;;
7531;SDS011;3807;49.030;8.714;2023-09-12T08:56:01;15.98;;;7.22;;
7531;SDS011;3807;49.030;8.714;2023-09-12T08:58:28;12.55;;;7.05;;
7531;SDS011;3807;49.030;8.714;2023-09-12T09:00:55;10.98;;;6.50;;
7531;SDS011;3807;49.030;8.714;2023-09-12T09:03:22;16.23;;;7.30;;
7531;SDS011;3807;49.030;8.714;2023-09-12T09:05:48;10.85;;;6.68;;
7531;SDS011;3807;49.030;8.714;2023-09-12T09:08:15;9.85;;;7.00;;
7531;SDS011;3807;49.030;8.714;2023-09-12T09:10:54;9.52;;;7.10;;
7531;SDS011;3807;49.030;8.714;2023-09-12T09:13:20;9.23;;;6.65;;
7531;SDS011;3807;49.030;8.714;2023-09-12T09:15:45;9.98;;;7.30;;
7531;SDS011;3807;49.030;8.714;2023-09-12T09:18:10;8.52;;;7.20;;
7531;SDS011;3807;49.030;8.714;2023-09-12T09:20:37;18.27;;;7.03;;
7531;SDS011;3807;49.030;8.714;2023-09-12T09:23:04;11.40;;;6.97;;
7531;SDS011;3807;49.030;8.714;2023-09-12T09:25:37;11.65;;;7.35;;
7531;SDS011;3807;49.030;8.714;2023-09-12T09:28:05;12.73;;;7.03;;
7531;SDS011;3807;49.030;8.714;2023-09-12T09:30:45;10.70;;;6.95;;
7531;SDS011;3807;49.030;8.714;2023-09-12T09:33:12;13.57;;;7.93;;
7531;SDS011;3807;49.030;8.714;2023-09-12T09:35:40;13.85;;;6.50;;
7531;SDS011;3807;49.030;8.714;2023-09-12T09:38:07;12.82;;;6.78;;
7531;SDS011;3807;49.030;8.714;2023-09-12T09:40:33;10.13;;;6.32;;
7531;SDS011;3807;49.030;8.714;2023-09-12T09:42:59;10.52;;;6.95;;
7531;SDS011;3807;49.030;8.714;2023-09-12T09:45:29;9.48;;;6.43;;
7531;SDS011;3807;49.030;8.714;2023-09-12T09:48:03;9.57;;;6.30;;
7531;SDS011;3807;49.030;8.714;2023-09-12T09:50:33;8.05;;;5.90;;
7531;SDS011;3807;49.030;8.714;2023-09-12T09:53:00;8.60;;;5.90;;
7531;SDS011;3807;49.030;8.714;2023-09-12T09:55:26;6.95;;;5.97;;
7531;SDS011;3807;49.030;8.714;2023-09-12T09:57:52;10.30;;;6.30;;
7531;SDS011;3807;49.030;8.714;2023-09-12T10:00:19;8.52;;;5.75;;
7531;SDS011;3807;49.030;8.714;2023-09-12T10:02:45;11.95;;;5.97;;
7531;SDS011;3807;49.030;8.714;2023-09-12T10:05:13;15.45;;;6.47;;
7531;SDS011;3807;49.030;8.714;2023-09-12T10:07:40;13.77;;;5.93;;
7531;SDS011;3807;49.030;8.714;2023-09-12T10:10:06;9.15;;;5.85;;
7531;SDS011;3807;49.030;8.714;2023-09-12T10:12:36;9.77;;;5.62;;
7531;SDS011;3807;49.030;8.714;2023-09-12T10:15:07;10.60;;;6.30;;
7531;SDS011;3807;49.030;8.714;2023-09-12T10:17:36;9.30;;;6.32;;
7531;SDS011;3807;49.030;8.714;2023-09-12T10:20:04;13.02;;;6.90;;
7531;SDS011;3807;49.030;8.714;2023-09-12T10:22:39;9.18;;;6.28;;
7531;SDS011;3807;49.030;8.714;2023-09-12T10:25:08;8.20;;;6.65;;
7531;SDS011;3807;49.030;8.714;2023-09-12T10:27:35;11.23;;;6.75;;
7531;SDS011;3807;49.030;8.714;2023-09-12T10:30:01;10.82;;;6.22;;
7531;SDS011;3807;49.030;8.714;2023-09-12T10:32:27;9.20;;;6.00;;
7531;SDS011;3807;49.030;8.714;2023-09-12T10:34:55;9.95;;;6.12;;
7531;SDS011;3807;49.030;8.714;2023-09-12T10:37:24;7.60;;;6.35;;
7531;SDS011;3807;49.030;8.714;2023-09-12T10:39:51;13.25;;;6.87;;
7531;SDS011;3807;49.030;8.714;2023-09-12T10:42:18;17.42;;;8.02;;
7531;SDS011;3807;49.030;8.714;2023-09-12T10:44:45;9.10;;;5.95;;
7531;SDS011;3807;49.030;8.714;2023-09-12T10:47:11;10.20;;;6.62;;
7531;SDS011;3807;49.030;8.714;2023-09-12T10:49:37;10.15;;;6.47;;
7531;SDS011;3807;49.030;8.714;2023-09-12T10:52:03;9.82;;;6.30;;
7531;SDS011;3807;49.030;8.714;2023-09-12T10:54:38;9.25;;;5.90;;
7531;SDS011;3807;49.030;8.714;2023-09-12T10:57:05;9.73;;;6.15;;
7531;SDS011;3807;49.030;8.714;2023-09-12T10:59:32;9.13;;;6.18;;
7531;SDS011;3807;49.030;8.714;2023-09-12T11:04:58;9.05;;;6.45;;
7531;SDS011;3807;49.030;8.714;2023-09-12T11:12:40;10.45;;;6.50;;
7531;SDS011;3807;49.030;8.714;2023-09-12T11:15:07;12.52;;;6.90;;
7531;SDS011;3807;49.030;8.714;2023-09-12T11:17:39;8.02;;;5.97;;
7531;SDS011;3807;49.030;8.714;2023-09-12T11:20:08;11.40;;;6.62;;
7531;SDS011;3807;49.030;8.714;2023-09-12T11:22:45;10.13;;;6.43;;
7531;SDS011;3807;49.030;8.714;2023-09-12T11:25:24;9.25;;;5.87;;
7531;SDS011;3807;49.030;8.714;2023-09-12T11:30:19;9.40;;;6.25;;
7531;SDS011;3807;49.030;8.714;2023-09-12T11:32:46;7.57;;;5.70;;
7531;SDS011;3807;49.030;8.714;2023-09-12T11:35:14;14.02;;;6.28;;
7531;SDS011;3807;49.030;8.714;2023-09-12T11:37:40;9.07;;;6.22;;
7531;SDS011;3807;49.030;8.714;2023-09-12T11:42:41;11.05;;;5.60;;
7531;SDS011;3807;49.030;8.714;2023-09-12T11:45:08;11.57;;;6.32;;
7531;SDS011;3807;49.030;8.714;2023-09-12T11:47:40;10.98;;;5.60;;
7531;SDS011;3807;49.030;8.714;2023-09-12T11:50:06;8.73;;;5.35;;
7531;SDS011;3807;49.030;8.714;2023-09-12T11:52:35;6.43;;;5.30;;
7531;SDS011;3807;49.030;8.714;2023-09-12T11:55:01;15.98;;;5.93;;
7531;SDS011;3807;49.030;8.714;2023-09-12T11:57:27;11.02;;;5.18;;
7531;SDS011;3807;49.030;8.714;2023-09-12T11:59:52;9.18;;;5.35;;
7531;SDS011;3807;49.030;8.714;2023-09-12T12:02:18;9.90;;;5.50;;
7531;SDS011;3807;49.030;8.714;2023-09-12T12:04:43;8.25;;;5.65;;
7531;SDS011;3807;49.030;8.714;2023-09-12T12:07:10;10.57;;;5.68;;
7531;SDS011;3807;49.030;8.714;2023-09-12T12:09:36;6.75;;;5.35;;
7531;SDS011;3807;49.030;8.714;2023-09-12T12:12:08;9.38;;;5.57;;
7531;SDS011;3807;49.030;8.714;2023-09-12T12:14:35;6.75;;;5.20;;
7531;SDS011;3807;49.030;8.714;2023-09-12T12:17:10;6.93;;;5.65;;
7531;SDS011;3807;49.030;8.714;2023-09-12T12:19:36;6.95;;;5.30;;
7531;SDS011;3807;49.030;8.714;2023-09-12T12:22:03;12.88;;;5.25;;
7531;SDS011;3807;49.030;8.714;2023-09-12T12:24:41;6.87;;;4.90;;
7531;SDS011;3807;49.030;8.714;2023-09-12T12:27:10;9.63;;;5.43;;
7531;SDS011;3807;49.030;8.714;2023-09-12T12:29:36;11.18;;;4.85;;
7531;SDS011;3807;49.030;8.714;2023-09-12T12:32:04;8.27;;;5.12;;
7531;SDS011;3807;49.030;8.714;2023-09-12T12:34:30;6.60;;;5.22;;
7531;SDS011;3807;49.030;8.714;2023-09-12T12:36:56;10.27;;;5.40;;
7531;SDS011;3807;49.030;8.714;2023-09-12T12:39:22;7.60;;;5.07;;
7531;SDS011;3807;49.030;8.714;2023-09-12T12:41:47;10.45;;;5.22;;
7531;SDS011;3807;49.030;8.714;2023-09-12T12:44:13;10.05;;;5.35;;
7531;SDS011;3807;49.030;8.714;2023-09-12T12:46:51;9.98;;;5.37;;
7531;SDS011;3807;49.030;8.714;2023-09-12T12:49:21;5.07;;;4.37;;
7531;SDS011;3807;49.030;8.714;2023-09-12T12:51:48;7.18;;;4.85;;
7531;SDS011;3807;49.030;8.714;2023-09-12T12:54:14;8.25;;;5.18;;
7531;SDS011;3807;49.030;8.714;2023-09-12T12:56:40;10.52;;;5.55;;
7531;SDS011;3807;49.030;8.714;2023-09-12T12:59:06;8.07;;;5.22;;
7531;SDS011;3807;49.030;8.714;2023-09-12T13:01:36;10.48;;;5.35;;
7531;SDS011;3807;49.030;8.714;2023-09-12T13:04:06;6.62;;;5.20;;
7531;SDS011;3807;49.030;8.714;2023-09-12T13:06:33;5.87;;;5.28;;
7531;SDS011;3807;49.030;8.714;2023-09-12T13:09:01;6.40;;;4.87;;
7531;SDS011;3807;49.030;8.714;2023-09-12T13:11:30;7.68;;;5.43;;
7531;SDS011;3807;49.030;8.714;2023-09-12T13:13:57;8.15;;;5.47;;
7531;SDS011;3807;49.030;8.714;2023-09-12T13:16:22;10.70;;;6.12;;
7531;SDS011;3807;49.030;8.714;2023-09-12T13:18:47;10.38;;;5.35;;
7531;SDS011;3807;49.030;8.714;2023-09-12T13:21:13;7.45;;;5.72;;
7531;SDS011;3807;49.030;8.714;2023-09-12T13:23:38;8.02;;;5.57;;
7531;SDS011;3807;49.030;8.714;2023-09-12T13:26:04;7.00;;;5.40;;
7531;SDS011;3807;49.030;8.714;2023-09-12T13:28:31;8.35;;;5.62;;
7531;SDS011;3807;49.030;8.714;2023-09-12T13:30:57;8.05;;;5.35;;
7531;SDS011;3807;49.030;8.714;2023-09-12T13:33:22;10.05;;;5.40;;
7531;SDS011;3807;49.030;8.714;2023-09-12T13:35:48;12.37;;;5.15;;
7531;SDS011;3807;49.030;8.714;2023-09-12T13:38:15;5.95;;;5.18;;
7531;SDS011;3807;49.030;8.714;2023-09-12T13:40:42;7.80;;;5.55;;
7531;SDS011;3807;49.030;8.714;2023-09-12T13:43:08;7.03;;;5.75;;
7531;SDS011;3807;49.030;8.714;2023-09-12T13:45:34;7.00;;;5.43;;
7531;SDS011;3807;49.030;8.714;2023-09-12T13:48:00;9.70;;;5.35;;
7531;SDS011;3807;49.030;8.714;2023-09-12T13:50:26;6.70;;;5.22;;
7531;SDS011;3807;49.030;8.714;2023-09-12T13:52:57;7.47;;;4.75;;
7531;SDS011;3807;49.030;8.714;2023-09-12T13:55:24;8.25;;;5.22;;
7531;SDS011;3807;49.030;8.714;2023-09-12T13:57:50;9.98;;;4.75;;
7531;SDS011;3807;49.030;8.714;2023-09-12T14:00:15;6.03;;;5.43;;
7531;SDS011;3807;49.030;8.714;2023-09-12T14:02:41;8.77;;;5.40;;
7531;SDS011;3807;49.030;8.714;2023-09-12T14:05:06;5.45;;;4.95;;
7531;SDS011;3807;49.030;8.714;2023-09-12T14:07:32;7.45;;;4.78;;
7531;SDS011;3807;49.030;8.714;2023-09-12T14:09:57;6.53;;;5.32;;
7531;SDS011;3807;49.030;8.714;2023-09-12T14:12:23;6.68;;;4.78;;
7531;SDS011;3807;49.030;8.714;2023-09-12T14:14:49;8.32;;;5.00;;
7531;SDS011;3807;49.030;8.714;2023-09-12T14:17:15;6.22;;;5.07;;
7531;SDS011;3807;49.030;8.714;2023-09-12T14:19:40;9.77;;;5.07;;
7531;SDS011;3807;49.030;8.714;2023-09-12T14:22:05;6.53;;;5.03;;
7531;SDS011;3807;49.030;8.714;2023-09-12T14:24:31;7.05;;;4.57;;
7531;SDS011;3807;49.030;8.714;2023-09-12T14:26:57;8.18;;;5.18;;
7531;SDS011;3807;49.030;8.714;2023-09-12T14:29:22;5.68;;;4.45;;
7531;SDS011;3807;49.030;8.714;2023-09-12T14:31:49;9.93;;;5.03;;
7531;SDS011;3807;49.030;8.714;2023-09-12T14:34:16;6.95;;;5.18;;
7531;SDS011;3807;49.030;8.714;2023-09-12T14:36:41;8.02;;;4.55;;
7531;SDS011;3807;49.030;8.714;2023-09-12T14:39:07;9.85;;;4.90;;
7531;SDS011;3807;49.030;8.714;2023-09-12T14:41:32;7.62;;;4.70;;
7531;SDS011;3807;49.030;8.714;2023-09-12T14:43:58;7.43;;;4.97;;
7531;SDS011;3807;49.030;8.714;2023-09-12T14:46:23;10.40;;;5.35;;
7531;SDS011;3807;49.030;8.714;2023-09-12T14:48:48;5.53;;;4.37;;
7531;SDS011;3807;49.030;8.714;2023-09-12T14:51:14;11.85;;;5.12;;
7531;SDS011;3807;49.030;8.714;2023-09-12T14:53:39;6.32;;;4.55;;
7531;SDS011;3807;49.030;8.714;2023-09-12T14:56:09;7.15;;;5.03;;
7531;SDS011;3807;49.030;8.714;2023-09-12T14:58:35;6.93;;;5.22;;
7531;SDS011;3807;49.030;8.714;2023-09-12T15:01:00;9.77;;;4.70;;
7531;SDS011;3807;49.030;8.714;2023-09-12T15:03:26;6.57;;;5.00;;
7531;SDS011;3807;49.030;8.714;2023-09-12T15:05:51;8.35;;;4.47;;
7531;SDS011;3807;49.030;8.714;2023-09-12T15:08:16;6.07;;;4.80;;
7531;SDS011;3807;49.030;8.714;2023-09-12T15:10:42;7.57;;;4.93;;
7531;SDS011;3807;49.030;8.714;2023-09-12T15:13:07;4.85;;;3.95;;
7531;SDS011;3807;49.030;8.714;2023-09-12T15:15:32;6.65;;;4.78;;
7531;SDS011;3807;49.030;8.714;2023-09-12T15:17:58;7.05;;;3.83;;